Time;durP1;ratioP1;P1;durP2;ratioP2;P2;SDS_P1;SDS_P2;PMS_P1;PMS_P2;Temp;Humidity;BMP_temperature;BMP_pressure;BME280_temperature;BME280_humidity;BME280_pressure;Samples;Min_cycle;Max_cycle;Signal;HPM_P1;HPM_P2
2022/03/17 00:00:08;;;;;;;67.90;39.90;;;;;;;0.62;69.54;102171.34;84835;1324;22544;-77
2022/03/17 00:02:37;;;;;;;72.00;36.50;;;;;;;0.54;69.34;102172.80;84840;1324;22860;-76
2022/03/17 00:04:46;;;;;;;58.00;35.50;;;;;;;0.50;69.59;102177.83;84897;1320;24286;-69
2022/03/17 00:06:58;;;;;;;58.10;35.40;;;;;;;0.45;69.92;102178.04;84869;1324;22731;-70
2022/03/17 00:09:08;;;;;;;68.40;36.80;;;;;;;0.42;70.14;102180.84;84911;1324;22583;-76
2022/03/17 00:11:16;;;;;;;66.90;38.50;;;;;;;0.38;69.98;102182.09;84853;1327;22572;-76
2022/03/17 00:13:26;;;;;;;64.40;37.20;;;;;;;0.34;69.85;102178.52;84834;1325;22705;-76
2022/03/17 00:15:40;;;;;;;76.10;39.00;;;;;;;0.30;70.18;102185.41;84888;1324;24032;-77
2022/03/17 00:17:49;;;;;;;65.00;36.00;;;;;;;0.27;70.43;102189.59;84850;1321;24336;-75
2022/03/17 00:20:02;;;;;;;77.00;39.40;;;;;;;0.23;70.29;102192.41;84858;1323;22589;-68
2022/03/17 00:22:16;;;;;;;76.10;41.50;;;;;;;0.21;70.53;102197.81;84852;1324;22874;-69
2022/03/17 00:24:25;;;;;;;75.90;42.80;;;;;;;0.16;70.29;102201.27;84887;1323;22654;-75
2022/03/17 00:26:34;;;;;;;82.50;40.80;;;;;;;0.10;70.52;102202.75;84858;1324;25961;-76
2022/03/17 00:28:43;;;;;;;77.60;43.10;;;;;;;0.05;70.26;102203.46;84877;1325;22815;-78
2022/03/17 00:30:52;;;;;;;74.70;40.40;;;;;;;-0.00;70.61;102206.71;84848;1323;24494;-72
2022/03/17 00:33:04;;;;;;;74.30;41.90;;;;;;;-0.06;70.69;102204.46;84819;1324;22731;-71
2022/03/17 00:37:42;;;;;;;71.40;39.20;;;;;;;-0.18;71.09;102203.52;84863;1315;22832;-69
2022/03/17 00:39:51;;;;;;;65.60;38.30;;;;;;;-0.21;71.28;102201.86;84855;1324;22596;-69
2022/03/17 00:42:04;;;;;;;62.50;38.00;;;;;;;-0.22;71.28;102203.20;84875;1324;22587;-69
2022/03/17 00:44:14;;;;;;;73.60;41.80;;;;;;;-0.20;71.54;102203.44;84863;1318;22853;-75
2022/03/17 00:46:23;;;;;;;78.60;42.90;;;;;;;-0.19;71.90;102203.48;84848;1318;25494;-76
2022/03/17 00:48:32;;;;;;;74.70;41.10;;;;;;;-0.15;71.72;102202.23;84831;1324;24222;-76
2022/03/17 00:50:42;;;;;;;74.30;41.40;;;;;;;-0.12;72.03;102202.02;84822;1325;24213;-68
2022/03/17 00:52:51;;;;;;;69.10;40.60;;;;;;;-0.10;71.91;102202.08;84850;1325;22603;-69
2022/03/17 00:55:00;;;;;;;75.70;43.40;;;;;;;-0.09;71.82;102200.06;84819;1324;22667;-69
2022/03/17 00:57:09;;;;;;;79.30;42.60;;;;;;;-0.08;71.78;102197.85;84863;1324;24247;-69
2022/03/17 00:59:21;;;;;;;80.00;44.20;;;;;;;-0.09;71.65;102200.41;84867;1321;25456;-76
2022/03/17 01:01:30;;;;;;;78.40;44.20;;;;;;;-0.09;71.95;102200.41;84842;1324;23897;-77
2022/03/17 01:03:42;;;;;;;71.70;41.30;;;;;;;-0.09;71.58;102201.09;84166;1324;1003136;-76
2022/03/17 01:05:52;;;;;;;73.70;42.20;;;;;;;-0.08;71.53;102202.14;84864;1324;22584;-76
2022/03/17 01:08:01;;;;;;;76.80;40.80;;;;;;;-0.12;71.72;102202.54;84881;1316;22673;-78
2022/03/17 01:10:12;;;;;;;77.00;41.50;;;;;;;-0.10;71.81;102205.70;84855;1324;22590;-69
2022/03/17 01:12:24;;;;;;;69.20;39.40;;;;;;;-0.07;71.97;102206.83;84852;1319;23074;-70
2022/03/17 01:14:32;;;;;;;75.40;41.10;;;;;;;-0.06;71.57;102206.70;84881;1323;22616;-78
2022/03/17 01:16:41;;;;;;;71.00;36.70;;;;;;;-0.05;71.86;102206.55;84844;1325;25485;-75
2022/03/17 01:18:50;;;;;;;60.00;38.70;;;;;;;-0.03;72.01;102208.67;84862;1322;23094;-77
2022/03/17 01:21:02;;;;;;;63.40;36.60;;;;;;;-0.02;71.92;102209.40;84862;1323;22586;-76
2022/03/17 01:23:14;;;;;;;68.70;38.30;;;;;;;0.00;71.72;102209.63;83427;1324;1015770;-76
2022/03/17 01:25:23;;;;;;;72.20;38.20;;;;;;;0.00;71.79;102210.15;84852;1323;22716;-69
2022/03/17 01:27:34;;;;;;;77.20;40.00;;;;;;;-0.02;71.86;102209.90;84860;1324;22692;-72
2022/03/17 01:29:44;;;;;;;70.10;41.20;;;;;;;-0.08;71.86;102212.11;84861;1324;22622;-77
2022/03/17 01:31:53;;;;;;;73.20;39.80;;;;;;;-0.13;71.62;102210.73;84853;1320;22590;-78
2022/03/17 01:34:03;;;;;;;74.90;40.50;;;;;;;-0.19;71.53;102209.47;84846;1323;22729;-75
2022/03/17 01:36:12;;;;;;;68.70;39.70;;;;;;;-0.27;71.57;102211.77;84857;1324;24805;-77
2022/03/17 01:38:22;;;;;;;75.70;43.10;;;;;;;-0.34;71.74;102212.88;84844;1323;24224;-77
2022/03/17 01:40:34;;;;;;;69.20;38.10;;;;;;;-0.42;71.48;102212.76;84825;1325;22610;-70
2022/03/17 01:42:43;;;;;;;72.30;39.40;;;;;;;-0.50;71.75;102214.02;84824;1322;22577;-70
2022/03/17 01:44:55;;;;;;;63.60;37.50;;;;;;;-0.57;71.83;102216.01;84824;1324;22575;-76
2022/03/17 01:49:32;;;;;;;71.20;39.20;;;;;;;-0.68;72.07;102225.69;84860;1324;22656;-76
2022/03/17 01:51:41;;;;;;;73.80;42.30;;;;;;;-0.72;72.11;102227.77;84867;1324;22580;-76
2022/03/17 01:53:50;;;;;;;62.10;36.60;;;;;;;-0.74;72.26;102226.67;84837;1323;22822;-77
2022/03/17 01:56:02;;;;;;;67.90;40.20;;;;;;;-0.75;72.41;102225.42;84868;1324;22614;-76
2022/03/17 01:58:11;;;;;;;68.90;40.10;;;;;;;-0.78;72.41;102225.13;84843;1324;25300;-77
2022/03/17 02:00:23;;;;;;;68.50;38.70;;;;;;;-0.82;72.45;102226.39;84804;1323;22568;-77
2022/03/17 02:02:33;;;;;;;70.70;39.20;;;;;;;-0.85;72.51;102227.27;84119;1324;1003647;-76
2022/03/17 02:04:43;;;;;;;71.20;38.50;;;;;;;-0.88;72.76;102229.03;84876;1323;25934;-70
2022/03/17 02:06:52;;;;;;;69.90;38.60;;;;;;;-0.91;72.69;102234.91;84108;1324;1003405;-73
2022/03/17 02:09:01;;;;;;;72.30;38.20;;;;;;;-0.96;72.56;102228.20;84870;1324;23793;-76
2022/03/17 02:13:37;;;;;;;64.00;35.70;;;;;;;-1.13;72.49;102233.91;84841;1319;22581;-76
2022/03/17 02:15:52;;;;;;;70.10;37.20;;;;;;;-1.18;72.67;102239.54;84871;1323;22613;-68
2022/03/17 02:18:06;;;;;;;66.60;36.20;;;;;;;-1.24;72.80;102238.92;84857;1323;24271;-69
2022/03/17 02:20:18;;;;;;;69.10;37.40;;;;;;;-1.30;72.94;102242.83;84835;1309;22751;-69
2022/03/17 02:22:27;;;;;;;71.10;38.20;;;;;;;-1.35;73.12;102245.33;84845;1323;22657;-68
2022/03/17 02:27:03;;;;;;;77.40;36.20;;;;;;;-1.43;73.00;102252.38;84817;1325;25253;-69
2022/03/17 02:29:12;;;;;;;76.70;39.60;;;;;;;-1.47;73.34;102251.16;84793;1324;22666;-71
2022/03/17 02:31:21;;;;;;;72.50;37.70;;;;;;;-1.49;73.26;102256.04;84859;1322;22625;-69
2022/03/17 02:33:30;;;;;;;66.40;37.40;;;;;;;-1.50;73.66;102254.98;84732;1327;22580;-69
2022/03/17 02:35:39;;;;;;;66.80;39.20;;;;;;;-1.52;73.60;102257.30;84878;1324;22609;-76
2022/03/17 02:37:48;;;;;;;79.20;41.00;;;;;;;-1.54;73.48;102256.70;84151;1325;1003116;-77
2022/03/17 02:40:00;;;;;;;68.80;40.10;;;;;;;-1.59;73.42;102260.13;84861;1324;22580;-76
2022/03/17 02:42:12;;;;;;;84.20;42.60;;;;;;;-1.62;73.80;102259.82;84863;1324;22574;-77
2022/03/17 02:44:24;;;;;;;71.60;41.40;;;;;;;-1.65;73.81;102252.30;84879;1324;22704;-75
2022/03/17 02:46:36;;;;;;;81.40;42.30;;;;;;;-1.68;73.87;102257.14;84849;1324;25304;-76
2022/03/17 02:48:45;;;;;;;95.60;44.70;;;;;;;-1.69;73.85;102258.30;84831;1325;24157;-76
2022/03/17 02:50:54;;;;;;;82.40;43.10;;;;;;;-1.71;73.97;102256.84;84818;1321;22854;-77
2022/03/17 02:53:06;;;;;;;79.30;42.40;;;;;;;-1.73;74.09;102260.20;84151;1320;1016131;-77
2022/03/17 02:55:15;;;;;;;76.10;43.30;;;;;;;-1.75;74.18;102260.10;84895;1323;23920;-72
2022/03/17 02:57:24;;;;;;;78.20;41.60;;;;;;;-1.76;74.29;102261.61;84874;1325;23560;-70
2022/03/17 02:59:33;;;;;;;79.10;43.00;;;;;;;-1.76;74.77;102264.52;84874;1319;22676;-71
2022/03/17 03:01:46;;;;;;;78.20;41.90;;;;;;;-1.75;74.88;102269.01;84883;1319;22576;-70
2022/03/17 03:03:58;;;;;;;75.50;44.80;;;;;;;-1.74;75.04;102267.17;84894;1324;24226;-72
2022/03/17 03:06:07;;;;;;;81.50;44.30;;;;;;;-1.72;74.98;102271.52;84850;1320;25560;-69
2022/03/17 03:08:21;;;;;;;74.10;42.80;;;;;;;-1.71;75.11;102270.73;84155;1324;1003877;-69
2022/03/17 03:10:31;;;;;;;82.20;43.70;;;;;;;-1.69;74.94;102273.52;84923;1320;24055;-75
2022/03/17 03:12:40;;;;;;;80.10;43.70;;;;;;;-1.67;75.18;102273.61;84893;1324;22607;-77
2022/03/17 03:14:49;;;;;;;85.90;44.50;;;;;;;-1.68;75.21;102274.61;84899;1324;25438;-75
2022/03/17 03:17:01;;;;;;;82.70;43.50;;;;;;;-1.68;75.18;102278.17;84865;1324;22581;-76
2022/03/17 03:19:10;;;;;;;82.20;45.70;;;;;;;-1.71;74.99;102277.05;84870;1324;24324;-74
2022/03/17 03:21:23;;;;;;;76.70;43.30;;;;;;;-1.71;75.13;102275.67;84880;1324;22583;-76
2022/03/17 03:23:32;;;;;;;74.60;42.80;;;;;;;-1.73;75.17;102278.83;84893;1324;22579;-76
2022/03/17 03:25:41;;;;;;;86.40;47.50;;;;;;;-1.76;75.27;102283.50;84883;1324;25562;-70
2022/03/17 03:27:50;;;;;;;80.00;44.30;;;;;;;-1.77;75.68;102285.02;84788;1326;22576;-69
2022/03/17 03:30:00;;;;;;;90.80;44.90;;;;;;;-1.75;75.85;102285.23;84888;1325;22555;-77
2022/03/17 03:32:13;;;;;;;80.20;45.00;;;;;;;-1.72;76.17;102288.79;84850;1324;22719;-77
2022/03/17 03:34:23;;;;;;;74.50;41.40;;;;;;;-1.69;76.30;102290.80;84889;1323;22597;-77
2022/03/17 03:38:58;;;;;;;73.10;40.00;;;;;;;-1.62;76.52;102299.34;84916;1320;22677;-71
2022/03/17 03:41:05;;;;;;;78.60;39.20;;;;;;;-1.58;76.49;102304.65;84860;1324;23037;-70
2022/03/17 03:43:15;;;;;;;71.70;41.80;;;;;;;-1.52;76.51;102305.91;84869;1324;22832;-69
2022/03/17 03:45:22;;;;;;;74.70;40.40;;;;;;;-1.47;76.49;102305.42;84861;1324;25259;-69
2022/03/17 03:47:32;;;;;;;74.50;40.20;;;;;;;-1.44;76.64;102309.83;84826;1324;22650;-71
2022/03/17 03:49:42;;;;;;;70.70;39.80;;;;;;;-1.42;76.74;102313.36;84861;1324;22603;-76
2022/03/17 03:51:49;;;;;;;69.60;38.60;;;;;;;-1.40;76.52;102317.70;84896;1324;25461;-76
2022/03/17 03:54:15;;;;;;;70.00;40.90;;;;;;;-1.39;76.40;102321.84;84857;1324;22610;-76
2022/03/17 03:56:25;;;;;;;72.70;39.30;;;;;;;-1.43;75.98;102321.35;84882;1324;23958;-77
2022/03/17 03:58:31;;;;;;;79.70;42.20;;;;;;;-1.47;75.92;102322.89;84851;1324;24238;-76
2022/03/17 04:00:38;;;;;;;67.20;39.70;;;;;;;-1.53;75.68;102323.33;84869;1324;25414;-75
2022/03/17 04:02:45;;;;;;;73.80;42.40;;;;;;;-1.59;75.74;102323.79;84875;1323;23952;-75
2022/03/17 04:04:51;;;;;;;71.90;40.20;;;;;;;-1.65;75.50;102329.67;84902;1326;22592;-69
2022/03/17 04:06:59;;;;;;;71.20;38.70;;;;;;;-1.72;75.33;102332.25;84618;1323;334161;-69
2022/03/17 04:09:05;;;;;;;71.60;38.30;;;;;;;-1.79;75.50;102336.55;84788;1326;22579;-69
2022/03/17 04:11:12;;;;;;;72.90;39.20;;;;;;;-1.87;75.55;102339.98;84848;1325;25285;-69
2022/03/17 04:13:22;;;;;;;68.90;37.70;;;;;;;-1.95;75.50;102343.74;84836;1326;26461;-69
2022/03/17 04:15:29;;;;;;;69.70;38.10;;;;;;;-2.01;75.49;102344.98;84920;1324;22688;-69
2022/03/17 04:17:35;;;;;;;63.30;36.00;;;;;;;-2.09;75.53;102349.77;84878;1324;22623;-70
2022/03/17 04:19:42;;;;;;;66.70;37.00;;;;;;;-2.14;75.74;102349.36;84879;1316;22670;-75
2022/03/17 04:21:49;;;;;;;64.80;38.40;;;;;;;-2.17;75.80;102353.55;84881;1325;24303;-75
2022/03/17 04:23:55;;;;;;;68.50;36.40;;;;;;;-2.19;75.84;102350.69;84857;1323;26467;-75
2022/03/17 04:26:02;;;;;;;63.40;35.30;;;;;;;-2.22;75.93;102354.14;84900;1323;22712;-76
2022/03/17 04:28:11;;;;;;;66.20;37.20;;;;;;;-2.23;76.10;102352.20;84888;1323;22583;-76
2022/03/17 04:30:18;;;;;;;62.20;35.80;;;;;;;-2.24;76.15;102355.07;84813;1324;22605;-69
2022/03/17 04:32:27;;;;;;;64.80;36.20;;;;;;;-2.24;76.35;102351.66;84865;1324;23100;-69
2022/03/17 04:34:34;;;;;;;68.10;37.30;;;;;;;-2.23;76.55;102350.16;84885;1324;22569;-69
2022/03/17 04:36:43;;;;;;;65.60;35.70;;;;;;;-2.22;76.86;102353.13;84864;1324;22825;-69
2022/03/17 04:38:55;;;;;;;62.10;35.60;;;;;;;-2.21;76.54;102357.29;84846;1323;22593;-69
2022/03/17 04:41:08;;;;;;;65.10;37.10;;;;;;;-2.20;76.69;102359.22;84869;1324;22587;-76
2022/03/17 04:43:17;;;;;;;64.70;35.80;;;;;;;-2.23;76.46;102362.67;84867;1324;22639;-76
2022/03/17 04:45:26;;;;;;;67.30;36.80;;;;;;;-2.26;76.50;102363.33;84915;1324;22860;-69
2022/03/17 04:47:35;;;;;;;67.10;37.80;;;;;;;-2.29;76.55;102367.64;84872;1323;22603;-69
2022/03/17 04:49:44;;;;;;;70.70;37.30;;;;;;;-2.33;76.60;102371.94;84863;1324;22770;-75
2022/03/17 04:51:56;;;;;;;68.90;38.60;;;;;;;-2.36;76.38;102372.81;84847;1318;22720;-76
2022/03/17 04:54:06;;;;;;;70.40;38.60;;;;;;;-2.40;76.51;102377.25;84884;1324;23978;-74
2022/03/17 04:56:17;;;;;;;68.20;38.00;;;;;;;-2.43;76.48;102378.15;84864;1324;22584;-76
2022/03/17 04:58:30;;;;;;;67.20;37.80;;;;;;;-2.45;76.50;102381.26;84828;1323;22687;-77
2022/03/17 05:00:38;;;;;;;66.80;37.90;;;;;;;-2.47;76.71;102379.15;84852;1322;25298;-69
2022/03/17 05:02:47;;;;;;;69.20;37.80;;;;;;;-2.47;76.85;102379.98;84890;1323;23981;-69
2022/03/17 05:04:59;;;;;;;67.90;38.10;;;;;;;-2.46;76.94;102384.14;84869;1316;22702;-70
2022/03/17 05:07:08;;;;;;;76.30;39.80;;;;;;;-2.44;77.01;102385.95;84860;1324;25290;-69
2022/03/17 05:09:17;;;;;;;86.30;45.80;;;;;;;-2.40;77.21;102388.55;84870;1323;22602;-75
2022/03/17 05:11:29;;;;;;;82.60;42.40;;;;;;;-2.35;77.49;102388.27;84855;1324;24244;-77
2022/03/17 05:13:39;;;;;;;89.20;44.50;;;;;;;-2.30;77.65;102390.18;84903;1324;22593;-76
2022/03/17 05:15:48;;;;;;;102.60;46.50;;;;;;;-2.24;77.86;102389.27;84897;1320;22577;-70
2022/03/17 05:18:00;;;;;;;88.30;45.90;;;;;;;-2.16;78.04;102383.16;84871;1324;24075;-70
2022/03/17 05:20:15;;;;;;;90.70;44.40;;;;;;;-2.07;78.45;102384.58;83491;1324;1005195;-71
2022/03/17 05:22:27;;;;;;;88.40;44.90;;;;;;;-1.96;78.68;102383.71;84878;1324;25436;-69
2022/03/17 05:24:36;;;;;;;87.30;46.10;;;;;;;-1.88;78.45;102382.55;84842;1324;24183;-69
2022/03/17 05:26:45;;;;;;;71.90;38.10;;;;;;;-1.81;78.36;102382.33;84891;1324;25679;-70
2022/03/17 05:28:54;;;;;;;62.90;35.80;;;;;;;-1.79;77.96;102389.42;84822;1322;22599;-74
2022/03/17 05:31:06;;;;;;;73.10;39.00;;;;;;;-1.76;77.83;102391.65;84848;1323;22913;-75
2022/03/17 05:33:15;;;;;;;69.40;39.00;;;;;;;-1.70;77.94;102395.48;84851;1324;25250;-76
2022/03/17 05:35:28;;;;;;;76.70;40.90;;;;;;;-1.63;78.07;102399.55;84870;1325;22712;-75
2022/03/17 05:37:36;;;;;;;83.50;40.70;;;;;;;-1.59;77.83;102399.77;84179;1320;1003088;-75
2022/03/17 05:39:45;;;;;;;81.10;41.30;;;;;;;-1.55;77.96;102403.36;84846;1309;22664;-75
2022/03/17 05:41:58;;;;;;;84.80;43.10;;;;;;;-1.46;77.99;102410.55;84876;1319;22856;-75
2022/03/17 05:44:08;;;;;;;74.70;43.80;;;;;;;-1.39;77.92;102416.02;84907;1324;23622;-70
2022/03/17 05:46:20;;;;;;;77.30;39.70;;;;;;;-1.33;77.68;102417.48;84917;1324;22581;-69
2022/03/17 05:48:33;;;;;;;72.40;40.00;;;;;;;-1.26;77.85;102421.03;84858;1322;22938;-69
2022/03/17 05:50:46;;;;;;;76.00;39.00;;;;;;;-1.16;77.79;102427.96;84886;1322;22792;-74
2022/03/17 05:52:55;;;;;;;64.00;37.60;;;;;;;-0.90;78.10;102428.90;84900;1323;22574;-75
2022/03/17 05:55:09;;;;;;;67.40;37.20;;;;;;;-0.36;79.54;102430.75;84856;1323;22587;-69
2022/03/17 05:57:18;;;;;;;67.20;38.30;;;;;;;0.53;80.72;102426.59;84864;1324;22580;-69
2022/03/17 05:59:27;;;;;;;65.10;36.90;;;;;;;1.59;81.44;102420.70;84864;1325;22590;-67
2022/03/17 06:01:39;;;;;;;73.20;38.20;;;;;;;2.70;81.34;102421.03;84891;1320;22712;-69
2022/03/17 06:03:49;;;;;;;74.40;39.00;;;;;;;3.77;78.77;102420.27;84897;1324;24205;-69
2022/03/17 06:05:58;;;;;;;62.70;36.10;;;;;;;4.69;76.35;102419.25;84876;1325;22590;-70
2022/03/17 06:08:11;;;;;;;56.50;33.60;;;;;;;5.52;71.99;102413.95;84817;1323;22590;-69
2022/03/17 06:10:23;;;;;;;56.00;32.90;;;;;;;6.19;69.38;102414.23;84895;1323;24258;-69
2022/03/17 06:12:33;;;;;;;60.80;33.50;;;;;;;6.87;68.33;102413.62;84857;1323;25299;-69
2022/03/17 06:14:45;;;;;;;62.70;33.30;;;;;;;7.60;66.17;102411.48;84873;1324;22742;-76
2022/03/17 06:16:58;;;;;;;52.40;32.20;;;;;;;8.20;63.00;102406.43;84848;1328;22728;-76
2022/03/17 06:19:08;;;;;;;70.90;36.80;;;;;;;8.64;61.78;102406.62;84857;1324;25261;-76
2022/03/17 06:21:20;;;;;;;58.30;33.60;;;;;;;9.09;59.33;102405.64;84849;1326;22813;-75
2022/03/17 06:23:32;;;;;;;60.20;34.90;;;;;;;9.24;56.78;102403.39;84839;1325;23921;-76
2022/03/17 06:25:41;;;;;;;62.80;34.70;;;;;;;9.34;56.49;102403.21;84870;1318;22678;-68
2022/03/17 06:27:54;;;;;;;63.80;35.10;;;;;;;9.49;55.81;102399.71;84896;1324;22586;-69
2022/03/17 06:30:04;;;;;;;68.30;38.60;;;;;;;9.54;54.31;102399.02;84761;1328;22592;-68
2022/03/17 06:32:16;;;;;;;59.20;35.40;;;;;;;9.76;53.80;102401.23;84842;1325;22591;-67
2022/03/17 06:34:26;;;;;;;58.60;33.30;;;;;;;10.10;52.92;102403.58;84890;1319;23115;-74
2022/03/17 06:36:38;;;;;;;51.50;33.00;;;;;;;10.14;52.88;102405.85;84854;1327;22822;-75
2022/03/17 06:41:10;;;;;;;41.40;29.10;;;;;;;10.61;51.49;102417.17;81970;1372;544935;-75
2022/03/17 06:43:17;;;;;;;43.50;28.30;;;;;;;10.68;50.40;102424.13;84265;1331;23212;-76
2022/03/17 06:45:24;;;;;;;45.40;30.20;;;;;;;10.81;50.75;102425.45;84177;1339;23905;-76
2022/03/17 06:47:31;;;;;;;44.20;29.30;;;;;;;10.94;48.34;102423.77;84183;1340;25281;-76
2022/03/17 06:49:41;;;;;;;42.10;29.70;;;;;;;11.02;48.77;102420.94;84195;1339;22753;-70
2022/03/17 06:51:49;;;;;;;48.80;30.90;;;;;;;11.12;47.69;102421.37;84710;1328;24231;-69
2022/03/17 06:53:56;;;;;;;45.10;29.20;;;;;;;11.04;46.64;102423.54;84677;1325;22601;-69
2022/03/17 06:56:07;;;;;;;41.90;29.70;;;;;;;11.27;47.49;102423.89;84628;1325;22932;-70
2022/03/17 06:58:14;;;;;;;43.10;28.60;;;;;;;11.58;46.69;102423.10;84785;1325;22771;-70
2022/03/17 07:00:21;;;;;;;41.40;28.30;;;;;;;11.73;46.00;102430.64;84704;1330;22638;-78
2022/03/17 07:02:29;;;;;;;38.60;27.40;;;;;;;12.02;45.30;102434.75;84777;1328;24219;-77
2022/03/17 07:04:36;;;;;;;43.10;29.00;;;;;;;12.38;45.21;102433.45;84816;1325;22620;-78
2022/03/17 07:06:43;;;;;;;42.20;29.50;;;;;;;12.76;44.55;102433.98;84789;1326;22583;-79
2022/03/17 07:08:53;;;;;;;45.20;29.30;;;;;;;12.91;43.14;102436.05;84813;1326;22579;-76
2022/03/17 07:11:04;;;;;;;44.40;29.00;;;;;;;12.99;43.67;102439.27;84807;1327;22591;-70
2022/03/17 07:13:13;;;;;;;38.30;28.30;;;;;;;13.19;42.00;102440.54;84678;1330;22583;-71
2022/03/17 07:15:24;;;;;;;40.70;28.50;;;;;;;13.06;41.41;102438.98;84799;1327;22641;-71
2022/03/17 07:17:36;;;;;;;43.60;28.40;;;;;;;12.92;41.73;102440.06;84791;1328;22661;-69
2022/03/17 07:19:45;;;;;;;47.30;30.20;;;;;;;12.69;41.27;102445.46;84860;1322;22818;-71
2022/03/17 07:21:53;;;;;;;47.30;30.80;;;;;;;12.65;42.76;102443.24;84792;1327;22613;-71
2022/03/17 07:24:00;;;;;;;42.90;27.80;;;;;;;13.02;41.62;102447.80;84777;1328;25346;-76
2022/03/17 07:26:10;;;;;;;41.10;27.60;;;;;;;13.15;40.98;102450.05;84720;1327;23930;-77
2022/03/17 07:28:19;;;;;;;44.30;28.20;;;;;;;13.35;40.74;102449.26;84823;1327;22806;-76
2022/03/17 07:30:26;;;;;;;42.80;28.20;;;;;;;13.56;39.16;102450.46;84808;1327;24345;-78
2022/03/17 07:32:36;;;;;;;41.90;27.50;;;;;;;13.71;39.37;102458.11;84786;1322;22830;-78
2022/03/17 07:34:44;;;;;;;38.40;27.40;;;;;;;13.97;39.58;102457.45;84729;1327;22980;-78
2022/03/17 07:36:51;;;;;;;35.10;26.30;;;;;;;14.28;38.81;102457.91;84796;1325;25507;-78
2022/03/17 07:39:02;;;;;;;38.30;28.10;;;;;;;14.63;39.07;102455.27;84815;1325;22598;-77
2022/03/17 07:41:09;;;;;;;44.70;27.50;;;;;;;15.16;38.38;102456.53;84799;1327;22721;-78
2022/03/17 07:43:16;;;;;;;36.00;26.40;;;;;;;15.58;36.83;102457.97;84804;1327;22596;-78
2022/03/17 07:45:23;;;;;;;40.10;26.90;;;;;;;15.90;34.92;102458.19;84773;1326;22675;-70
2022/03/17 07:47:32;;;;;;;41.00;27.10;;;;;;;16.09;35.79;102458.02;84800;1325;22600;-70
2022/03/17 07:49:39;;;;;;;39.40;28.00;;;;;;;16.46;35.00;102461.89;84817;1327;22598;-71
2022/03/17 07:51:46;;;;;;;39.20;28.00;;;;;;;16.79;34.60;102464.64;84766;1326;22839;-70
2022/03/17 07:53:53;;;;;;;39.70;27.30;;;;;;;17.14;33.30;102464.27;84813;1329;23983;-76
2022/03/17 07:56:00;;;;;;;41.30;26.80;;;;;;;17.29;33.29;102460.94;84769;1325;22602;-79
2022/03/17 07:58:07;;;;;;;36.00;25.70;;;;;;;17.58;33.45;102461.04;84748;1327;22616;-78
2022/03/17 08:00:17;;;;;;;39.50;26.90;;;;;;;17.99;33.08;102464.21;84800;1326;22657;-77
2022/03/17 08:02:24;;;;;;;39.80;29.10;;;;;;;18.44;32.12;102466.26;84799;1327;22686;-78
2022/03/17 08:04:31;;;;;;;40.00;28.10;;;;;;;18.68;32.08;102471.40;84784;1327;22594;-71
2022/03/17 08:06:41;;;;;;;36.50;26.70;;;;;;;18.73;30.09;102473.50;84809;1326;23827;-71
2022/03/17 08:08:49;;;;;;;43.20;28.80;;;;;;;18.78;30.82;102473.30;84795;1327;23355;-71
2022/03/17 08:10:59;;;;;;;43.00;28.40;;;;;;;18.98;30.23;102473.95;84779;1326;22598;-70
2022/03/17 08:13:08;;;;;;;36.20;27.80;;;;;;;19.15;29.63;102475.02;84768;1326;25476;-69
2022/03/17 08:15:18;;;;;;;37.10;26.80;;;;;;;19.29;29.93;102475.51;84794;1326;25476;-76
2022/03/17 08:17:25;;;;;;;39.10;26.60;;;;;;;19.46;29.89;102475.54;84791;1327;22789;-77
2022/03/17 08:19:32;;;;;;;42.00;27.90;;;;;;;19.65;29.08;102482.02;84811;1324;22580;-77
2022/03/17 08:21:42;;;;;;;38.20;28.00;;;;;;;19.70;28.44;102489.77;84785;1327;25463;-74
2022/03/17 08:23:53;;;;;;;38.50;28.30;;;;;;;19.57;28.42;102486.05;84768;1326;22646;-77
2022/03/17 08:26:00;;;;;;;40.10;27.70;;;;;;;19.59;28.21;102490.90;84784;1322;22740;-78
2022/03/17 08:28:08;;;;;;;38.30;26.60;;;;;;;19.67;28.24;102486.35;84801;1327;25425;-79
2022/03/17 08:30:15;;;;;;;38.50;28.20;;;;;;;19.71;28.71;102489.54;84724;1329;22614;-78
2022/03/17 08:32:26;;;;;;;38.40;27.70;;;;;;;19.86;27.75;102484.82;84793;1326;22804;-78
2022/03/17 08:34:37;;;;;;;32.50;26.80;;;;;;;20.02;27.85;102486.27;84832;1326;22714;-71
2022/03/17 08:36:49;;;;;;;40.00;27.50;;;;;;;20.10;27.46;102485.19;84773;1327;25968;-70
2022/03/17 08:38:59;;;;;;;38.60;26.90;;;;;;;20.17;27.03;102480.46;84773;1327;22594;-70
2022/03/17 08:41:07;;;;;;;32.20;25.30;;;;;;;20.13;27.31;102486.31;84793;1326;22581;-69
2022/03/17 08:43:15;;;;;;;34.50;27.30;;;;;;;20.24;27.17;102486.68;84748;1327;22793;-72
2022/03/17 08:50:18;;;;;;;33.90;27.70;;;;;;;19.94;26.47;102494.94;84771;1327;22578;-71
2022/03/17 08:52:30;;;;;;;33.10;26.00;;;;;;;19.84;26.08;102495.35;84789;1324;25318;-71
2022/03/17 08:54:39;;;;;;;36.40;26.00;;;;;;;19.60;25.99;102492.64;84806;1327;22805;-78
2022/03/17 08:56:47;;;;;;;35.70;27.00;;;;;;;19.48;26.30;102497.58;84770;1325;22591;-78
2022/03/17 08:58:59;;;;;;;36.10;27.70;;;;;;;19.35;26.24;102500.76;84779;1322;22928;-72
2022/03/17 09:01:10;;;;;;;48.00;29.60;;;;;;;19.09;26.24;102498.07;84642;1332;23949;-71
2022/03/17 09:03:19;;;;;;;33.30;24.60;;;;;;;19.04;26.38;102503.44;84747;1327;22694;-72
2022/03/17 09:05:33;;;;;;;37.60;26.30;;;;;;;18.97;26.00;102500.52;84768;1327;24286;-72
2022/03/17 09:07:41;;;;;;;31.90;25.30;;;;;;;18.71;25.93;102499.39;84808;1326;22593;-72
2022/03/17 09:09:52;;;;;;;35.80;25.20;;;;;;;18.35;26.81;102499.84;84815;1327;23952;-78
2022/03/17 09:12:00;;;;;;;32.90;23.90;;;;;;;18.22;26.34;102496.77;84766;1327;22684;-78
2022/03/17 09:14:09;;;;;;;33.90;26.60;;;;;;;18.06;27.50;102494.88;84797;1327;23943;-71
2022/03/17 09:16:20;;;;;;;33.40;25.80;;;;;;;18.25;27.16;102497.38;84700;1326;22917;-71
2022/03/17 09:18:29;;;;;;;43.60;26.80;;;;;;;18.49;27.28;102496.86;84737;1327;22642;-71
2022/03/17 09:20:40;;;;;;;31.80;24.80;;;;;;;18.68;26.94;102497.58;84785;1326;24055;-78
2022/03/17 09:22:52;;;;;;;31.80;25.50;;;;;;;18.81;26.47;102496.55;84673;1330;23918;-77
2022/03/17 09:25:05;;;;;;;32.50;25.00;;;;;;;18.71;26.45;102499.20;84812;1327;22594;-71
2022/03/17 09:27:16;;;;;;;30.30;24.00;;;;;;;18.72;26.47;102496.73;84794;1328;25437;-70
2022/03/17 09:29:27;;;;;;;30.00;22.30;;;;;;;18.76;26.65;102500.80;84787;1327;22734;-79
2022/03/17 09:31:38;;;;;;;35.10;23.50;;;;;;;18.95;26.67;102492.44;84789;1329;22657;-78
2022/03/17 09:33:48;;;;;;;39.30;25.30;;;;;;;19.04;26.00;102500.03;84787;1323;22605;-77
2022/03/17 09:36:00;;;;;;;38.20;23.60;;;;;;;19.00;25.87;102497.20;84745;1328;22822;-70
2022/03/17 09:38:11;;;;;;;35.70;23.70;;;;;;;18.97;26.06;102495.92;84710;1329;24771;-69
2022/03/17 09:40:23;;;;;;;32.60;23.30;;;;;;;18.91;26.03;102497.73;84764;1327;25433;-72
2022/03/17 09:42:35;;;;;;;31.20;22.60;;;;;;;18.87;25.83;102504.08;84788;1329;22631;-71
2022/03/17 09:44:47;;;;;;;31.10;23.80;;;;;;;18.73;25.87;102501.27;84768;1326;22590;-78
2022/03/17 09:46:59;;;;;;;32.80;20.80;;;;;;;18.50;25.58;102504.41;84782;1326;25298;-78
2022/03/17 09:49:08;;;;;;;30.40;21.40;;;;;;;18.25;26.32;102501.80;84757;1329;23104;-71
2022/03/17 09:51:19;;;;;;;31.70;23.20;;;;;;;18.25;26.45;102500.90;84803;1327;22658;-71
2022/03/17 09:53:28;;;;;;;32.30;23.30;;;;;;;18.28;26.73;102498.17;84766;1325;22712;-72
2022/03/17 09:55:37;;;;;;;29.70;20.50;;;;;;;18.18;25.47;102506.65;84790;1328;22585;-71
2022/03/17 09:57:49;;;;;;;29.70;20.90;;;;;;;17.68;26.54;102506.06;84751;1330;24236;-71
2022/03/17 10:00:00;;;;;;;32.00;22.10;;;;;;;17.40;27.19;102514.91;84818;1324;22583;-71
2022/03/17 10:02:09;;;;;;;32.60;22.60;;;;;;;17.15;27.36;102513.08;84734;1327;23924;-71
2022/03/17 10:04:19;;;;;;;30.20;22.50;;;;;;;16.73;27.46;102509.41;84815;1327;22854;-71
2022/03/17 10:06:30;;;;;;;32.30;22.50;;;;;;;16.25;28.23;102508.46;84767;1328;23753;-70
2022/03/17 10:08:40;;;;;;;29.50;21.40;;;;;;;15.76;28.62;102508.00;84799;1328;22649;-70